Time;durP1;ratioP1;P1;durP2;ratioP2;P2;SDS_P1;SDS_P2;PMS_P1;PMS_P2;Temp;Humidity;BMP_temperature;BMP_pressure;BME280_temperature;BME280_humidity;BME280_pressure;Samples;Min_cycle;Max_cycle;Signal;HPM_P1;HPM_P2
2022/06/18 00:01:34;;;;;;;4.75;2.70;;;25.70;92.70;;;;;;5061375;28;20095;-77
2022/06/18 00:04:01;;;;;;;4.88;3.17;;;25.60;92.70;;;;;;5058239;28;20923;-77
2022/06/18 00:06:29;;;;;;;5.10;3.10;;;25.60;92.80;;;;;;5078985;28;20048;-77
2022/06/18 00:08:55;;;;;;;6.40;3.13;;;25.60;92.90;;;;;;5056806;28;20048;-77
2022/06/18 00:14:05;;;;;;;4.95;3.72;;;25.50;93.00;;;;;;5061885;28;20507;-78
2022/06/18 00:16:31;;;;;;;4.40;3.35;;;25.50;93.10;;;;;;5062460;28;20044;-77
2022/06/18 00:18:57;;;;;;;5.60;2.75;;;25.50;92.90;;;;;;5060559;28;20129;-78
2022/06/18 00:21:25;;;;;;;5.88;3.08;;;25.50;93.20;;;;;;5061246;28;20100;-78
2022/06/18 00:23:51;;;;;;;4.00;2.95;;;25.50;93.20;;;;;;5059632;28;20067;-78
2022/06/18 00:26:18;;;;;;;3.72;2.95;;;25.50;93.30;;;;;;5046189;28;20075;-75
2022/06/18 00:28:43;;;;;;;4.57;3.00;;;25.40;93.30;;;;;;5076157;28;20041;-77
2022/06/18 00:31:09;;;;;;;5.53;3.00;;;25.40;93.40;;;;;;5060057;28;20096;-78
2022/06/18 00:33:39;;;;;;;5.10;3.42;;;25.40;93.50;;;;;;5058092;28;20532;-77
2022/06/18 00:36:07;;;;;;;5.70;3.63;;;25.40;93.50;;;;;;5062121;28;20041;-77
2022/06/18 00:38:39;;;;;;;5.10;3.17;;;25.40;93.60;;;;;;5060090;28;20557;-77
2022/06/18 00:41:06;;;;;;;5.75;2.53;;;25.30;93.60;;;;;;5060286;28;20136;-77
2022/06/18 00:43:50;;;;;;;7.55;2.90;;;25.30;93.70;;;;;;5076913;28;20084;-77
2022/06/18 00:46:25;;;;;;;3.72;2.50;;;25.30;93.70;;;;;;5078674;28;20087;-77
2022/06/18 00:49:07;;;;;;;4.97;3.30;;;25.30;93.70;;;;;;5061462;28;20545;-78
2022/06/18 00:51:42;;;;;;;4.15;2.78;;;25.30;93.60;;;;;;5061986;28;20117;-77
2022/06/18 00:54:12;;;;;;;4.00;2.67;;;25.20;93.60;;;;;;5077255;27;20049;-78
2022/06/18 00:56:46;;;;;;;3.67;2.60;;;25.20;93.60;;;;;;5061760;28;20563;-77
2022/06/18 00:59:39;;;;;;;6.00;2.58;;;25.20;93.60;;;;;;5061238;28;20060;-79
2022/06/18 01:02:06;;;;;;;4.80;3.47;;;25.20;93.60;;;;;;5049483;28;20049;-76
2022/06/18 01:04:35;;;;;;;6.50;3.10;;;25.10;93.50;;;;;;5076617;28;20049;-77
2022/06/18 01:07:22;;;;;;;5.78;3.45;;;25.10;93.50;;;;;;5058962;28;20100;-77
2022/06/18 01:09:51;;;;;;;3.42;2.83;;;25.10;93.40;;;;;;5059768;28;20832;-77
2022/06/18 01:12:17;;;;;;;2.97;2.20;;;25.10;93.40;;;;;;5063084;28;20045;-77
2022/06/18 01:14:45;;;;;;;3.75;2.33;;;25.10;93.40;;;;;;5043298;28;20114;-77
2022/06/18 01:17:11;;;;;;;4.05;2.50;;;25.10;93.40;;;;;;5062539;28;20049;-78
2022/06/18 01:19:46;;;;;;;3.72;2.50;;;25.00;93.40;;;;;;5060332;28;20048;-77
2022/06/18 01:22:27;;;;;;;3.28;2.28;;;25.00;93.40;;;;;;5075277;28;20045;-77
2022/06/18 01:24:53;;;;;;;3.83;2.67;;;25.00;93.30;;;;;;5074134;28;20492;-77
2022/06/18 01:27:19;;;;;;;3.97;2.17;;;25.00;93.40;;;;;;5060499;28;20045;-78
2022/06/18 01:29:45;;;;;;;4.43;2.38;;;24.90;93.30;;;;;;5059530;28;20145;-77
2022/06/18 01:32:14;;;;;;;4.18;2.55;;;24.90;93.30;;;;;;5061371;28;20100;-78
2022/06/18 01:34:40;;;;;;;5.13;2.42;;;24.90;93.30;;;;;;5057662;28;20570;-78
2022/06/18 01:37:07;;;;;;;5.72;2.38;;;24.90;93.30;;;;;;5060841;28;20040;-78
2022/06/18 01:39:38;;;;;;;5.18;2.72;;;24.90;93.30;;;;;;5058068;28;20101;-78
2022/06/18 01:42:10;;;;;;;3.78;3.28;;;24.90;93.40;;;;;;5059535;28;20060;-77
2022/06/18 01:44:54;;;;;;;3.30;2.33;;;24.90;93.40;;;;;;5062967;28;20069;-78
2022/06/18 01:47:22;;;;;;;6.30;2.47;;;24.80;93.40;;;;;;5063070;28;20048;-78
2022/06/18 01:49:57;;;;;;;6.57;2.80;;;24.80;93.40;;;;;;5065872;28;20040;-77
2022/06/18 01:52:26;;;;;;;5.28;3.38;;;24.80;93.40;;;;;;5064785;28;20051;-77
2022/06/18 01:54:55;;;;;;;3.35;2.58;;;24.80;93.40;;;;;;5063686;28;20033;-77
2022/06/18 01:57:31;;;;;;;4.63;2.85;;;24.80;93.40;;;;;;5065037;28;20047;-78
2022/06/18 02:00:06;;;;;;;4.05;2.83;;;24.80;93.40;;;;;;5060579;28;20040;-77
2022/06/18 02:02:31;;;;;;;8.95;2.80;;;24.70;93.40;;;;;;5061657;28;20510;-78
2022/06/18 02:04:57;;;;;;;5.03;3.00;;;24.70;93.40;;;;;;5064496;28;20052;-78
2022/06/18 02:07:24;;;;;;;4.35;2.83;;;24.70;93.50;;;;;;5046055;28;20051;-78
2022/06/18 02:09:58;;;;;;;3.28;2.65;;;24.70;93.50;;;;;;5061241;28;20407;-78
2022/06/18 02:12:28;;;;;;;2.95;2.47;;;24.70;93.50;;;;;;5062918;28;20049;-78
2022/06/18 02:14:58;;;;;;;6.45;3.10;;;24.70;93.80;;;;;;5063912;28;20041;-78
2022/06/18 02:17:26;;;;;;;3.13;2.50;;;24.70;93.60;;;;;;5061363;28;20049;-78
2022/06/18 02:20:08;;;;;;;7.28;2.80;;;24.70;93.60;;;;;;5079664;28;20510;-78
2022/06/18 02:22:47;;;;;;;5.43;2.88;;;24.60;93.60;;;;;;5062317;28;20047;-78
2022/06/18 02:25:15;;;;;;;5.72;3.10;;;24.60;93.70;;;;;;5060991;28;20710;-76
2022/06/18 02:27:42;;;;;;;4.13;2.95;;;24.60;93.70;;;;;;5062977;28;20579;-76
2022/06/18 02:30:19;;;;;;;3.38;2.42;;;24.60;93.70;;;;;;5065557;28;20048;-75
2022/06/18 02:33:17;;;;;;;4.55;2.78;;;24.50;93.70;;;;;;5063763;28;20111;-76
2022/06/18 02:35:43;;;;;;;4.68;2.58;;;24.60;93.70;;;;;;5062704;28;20037;-76
2022/06/18 02:38:21;;;;;;;6.97;4.13;;;24.50;93.70;;;;;;5063948;28;20515;-78
2022/06/18 02:40:47;;;;;;;4.65;2.63;;;24.50;93.70;;;;;;5064577;28;20041;-77
2022/06/18 02:43:15;;;;;;;4.60;2.60;;;24.50;93.80;;;;;;5061372;28;20059;-77
2022/06/18 02:45:43;;;;;;;3.83;2.72;;;24.50;93.80;;;;;;5062854;28;20040;-77
2022/06/18 02:48:09;;;;;;;4.78;2.88;;;24.40;93.80;;;;;;5059085;28;20133;-78
2022/06/18 02:50:38;;;;;;;7.80;2.90;;;24.50;93.90;;;;;;5076863;28;20040;-77
2022/06/18 02:53:04;;;;;;;4.40;2.70;;;24.40;94.00;;;;;;5062022;28;20036;-77
2022/06/18 02:55:33;;;;;;;5.07;2.78;;;24.40;94.00;;;;;;5060185;28;20592;-78
2022/06/18 02:58:08;;;;;;;5.40;2.35;;;24.40;94.10;;;;;;5078983;27;20152;-77
2022/06/18 03:00:38;;;;;;;4.45;2.53;;;24.40;94.20;;;;;;5064430;28;20493;-77
2022/06/18 03:03:10;;;;;;;4.97;3.30;;;24.40;94.20;;;;;;5077567;28;20158;-77
2022/06/18 03:05:37;;;;;;;5.03;2.67;;;24.40;94.30;;;;;;5060822;28;20424;-77
2022/06/18 03:08:04;;;;;;;5.65;3.08;;;24.30;94.30;;;;;;5062670;28;20098;-77
2022/06/18 03:13:18;;;;;;;3.30;2.45;;;24.30;94.40;;;;;;5064923;28;20040;-78
2022/06/18 03:15:48;;;;;;;4.07;2.92;;;24.30;94.30;;;;;;5062538;28;20041;-78
2022/06/18 03:18:15;;;;;;;5.68;2.50;;;24.30;94.20;;;;;;5061797;28;20579;-77
2022/06/18 03:21:19;;;;;;;6.05;2.80;;;24.30;94.20;;;;;;5062883;28;20040;-77
2022/06/18 03:23:46;;;;;;;5.43;2.50;;;24.20;94.00;;;;;;5075006;28;20179;-77
2022/06/18 03:26:13;;;;;;;5.15;2.90;;;24.20;94.10;;;;;;5060557;28;20041;-77
2022/06/18 03:28:40;;;;;;;5.05;2.45;;;24.20;94.00;;;;;;5063953;28;20119;-77
2022/06/18 03:31:06;;;;;;;5.43;2.90;;;24.20;93.90;;;;;;5060739;28;20047;-76
2022/06/18 03:33:32;;;;;;;4.13;2.60;;;24.20;93.90;;;;;;5060434;28;20054;-77
2022/06/18 03:35:59;;;;;;;6.53;3.00;;;24.20;93.80;;;;;;5060244;28;20510;-77
2022/06/18 03:38:25;;;;;;;5.97;2.85;;;24.20;93.80;;;;;;5062069;28;20041;-77
2022/06/18 03:40:51;;;;;;;6.13;2.90;;;24.10;93.80;;;;;;5060847;28;20087;-77
2022/06/18 03:43:21;;;;;;;4.50;2.60;;;24.10;93.80;;;;;;5062655;28;20061;-77
2022/06/18 03:45:51;;;;;;;4.78;2.83;;;24.10;93.90;;;;;;5077623;27;20063;-77
2022/06/18 03:48:22;;;;;;;5.82;2.65;;;24.10;94.00;;;;;;5060007;28;20609;-76
2022/06/18 03:50:49;;;;;;;4.35;3.05;;;24.10;94.10;;;;;;5044811;28;20047;-77
2022/06/18 03:53:15;;;;;;;6.32;2.75;;;24.10;94.20;;;;;;5057401;28;20053;-76
2022/06/18 03:55:42;;;;;;;7.60;3.00;;;24.10;94.30;;;;;;5059758;28;20874;-77
2022/06/18 03:58:08;;;;;;;4.53;2.92;;;24.00;94.30;;;;;;5076563;27;20083;-77
2022/06/18 04:00:34;;;;;;;5.20;3.53;;;24.00;94.40;;;;;;5077115;28;20184;-78
2022/06/18 04:03:00;;;;;;;6.55;3.20;;;24.00;94.50;;;;;;5059326;28;20175;-78
2022/06/18 04:05:26;;;;;;;5.47;3.33;;;24.00;94.50;;;;;;5062982;28;20392;-77
2022/06/18 04:07:52;;;;;;;4.68;2.63;;;24.00;94.60;;;;;;5043569;28;20036;-78
2022/06/18 04:10:21;;;;;;;4.65;2.83;;;24.00;94.70;;;;;;5078786;28;20044;-78
2022/06/18 04:12:47;;;;;;;5.57;2.83;;;24.00;94.70;;;;;;5078701;28;20040;-78
2022/06/18 04:15:15;;;;;;;5.40;3.30;;;24.00;94.80;;;;;;5060876;28;20123;-78
2022/06/18 04:17:42;;;;;;;4.05;2.60;;;24.00;94.80;;;;;;5059495;28;20124;-79
2022/06/18 04:20:19;;;;;;;6.88;2.80;;;24.00;94.90;;;;;;5061475;28;20098;-84
2022/06/18 04:22:44;;;;;;;6.28;3.50;;;24.00;94.90;;;;;;5059744;28;20095;-80
2022/06/18 04:25:10;;;;;;;3.90;3.10;;;24.00;95.00;;;;;;5058358;28;20106;-79
2022/06/18 04:27:37;;;;;;;5.18;2.80;;;24.00;95.00;;;;;;5057443;28;20403;-80
2022/06/18 04:30:03;;;;;;;6.00;2.63;;;24.00;95.00;;;;;;5054189;28;20041;-80
2022/06/18 04:32:29;;;;;;;5.22;2.95;;;24.00;95.00;;;;;;5060425;28;20045;-80
2022/06/18 04:34:55;;;;;;;6.72;2.83;;;24.00;95.00;;;;;;5062536;28;20091;-80
2022/06/18 04:37:21;;;;;;;5.50;3.03;;;24.00;95.00;;;;;;5062526;28;20047;-80
2022/06/18 04:39:47;;;;;;;6.40;2.95;;;24.00;95.00;;;;;;5062191;28;20037;-80
2022/06/18 04:42:13;;;;;;;5.35;2.95;;;24.10;94.90;;;;;;5062741;28;20064;-80
2022/06/18 04:44:38;;;;;;;7.55;3.67;;;24.10;94.80;;;;;;5063512;28;20053;-80
2022/06/18 04:47:04;;;;;;;5.13;3.53;;;24.10;94.70;;;;;;5061621;28;20624;-80
2022/06/18 04:49:30;;;;;;;6.07;3.08;;;24.10;94.60;;;;;;5061683;28;20117;-79
2022/06/18 04:51:56;;;;;;;4.45;3.28;;;24.10;94.50;;;;;;5059942;28;20128;-80
2022/06/18 04:54:21;;;;;;;5.85;2.88;;;24.10;94.50;;;;;;5062477;28;20316;-80
2022/06/18 04:56:47;;;;;;;5.30;2.95;;;24.10;94.50;;;;;;5045709;28;20040;-80
2022/06/18 04:59:15;;;;;;;4.38;3.47;;;24.20;94.50;;;;;;5058651;28;20572;-80
2022/06/18 05:01:41;;;;;;;5.20;3.25;;;24.20;94.60;;;;;;5060399;28;20111;-80
2022/06/18 05:04:08;;;;;;;8.90;4.10;;;24.20;94.60;;;;;;5059996;28;20129;-80
2022/06/18 05:06:35;;;;;;;7.28;3.28;;;24.20;94.60;;;;;;5075185;28;20045;-80
2022/06/18 05:09:00;;;;;;;6.15;3.20;;;24.20;94.70;;;;;;5061458;28;20541;-80
2022/06/18 05:11:26;;;;;;;5.70;3.13;;;24.30;94.70;;;;;;5055448;28;20090;-79
2022/06/18 05:13:52;;;;;;;6.32;3.75;;;24.30;94.70;;;;;;5060131;28;20040;-84
2022/06/18 05:16:18;;;;;;;9.82;3.42;;;24.30;94.70;;;;;;5062923;28;20064;-80
2022/06/18 05:18:46;;;;;;;8.13;4.40;;;24.30;94.70;;;;;;5057822;28;20041;-77
2022/06/18 05:21:12;;;;;;;6.00;3.75;;;24.30;94.70;;;;;;5065857;28;20550;-83
2022/06/18 05:23:37;;;;;;;5.10;3.10;;;24.30;94.80;;;;;;5062062;28;20036;-85
2022/06/18 05:26:09;;;;;;;10.93;3.50;;;24.20;94.80;;;;;;5063504;28;20049;-79
2022/06/18 05:28:36;;;;;;;3.95;2.80;;;24.30;94.90;;;;;;5066865;28;20044;-78
2022/06/18 05:31:02;;;;;;;3.58;3.03;;;24.30;94.90;;;;;;5081035;28;20051;-84
2022/06/18 05:33:27;;;;;;;4.82;3.55;;;24.40;94.90;;;;;;5047410;28;20040;-79
2022/06/18 05:35:53;;;;;;;7.13;3.17;;;24.40;94.90;;;;;;5058764;28;20049;-79
2022/06/18 05:38:21;;;;;;;5.88;3.95;;;24.40;94.90;;;;;;5064260;28;20037;-80
2022/06/18 05:40:47;;;;;;;16.73;4.25;;;24.40;95.00;;;;;;5056576;28;20052;-80
2022/06/18 05:43:13;;;;;;;5.10;3.33;;;24.50;95.00;;;;;;5045561;28;20064;-79
2022/06/18 05:45:39;;;;;;;4.03;3.00;;;24.50;95.00;;;;;;5059712;28;20037;-79
2022/06/18 05:48:06;;;;;;;6.97;3.65;;;24.50;95.00;;;;;;5060061;28;20049;-79
2022/06/18 05:50:31;;;;;;;6.93;3.10;;;24.50;95.00;;;;;;5080461;27;20045;-79
2022/06/18 05:52:57;;;;;;;5.65;3.20;;;24.60;95.20;;;;;;5059158;28;20407;-79
2022/06/18 05:55:23;;;;;;;4.70;3.55;;;24.50;94.90;;;;;;5062399;28;20044;-80
2022/06/18 05:57:51;;;;;;;4.43;3.55;;;24.50;94.90;;;;;;5060184;28;20081;-79
2022/06/18 06:00:20;;;;;;;6.00;3.55;;;24.60;94.90;;;;;;5060372;28;20041;-80
2022/06/18 06:02:46;;;;;;;5.00;2.97;;;24.60;94.90;;;;;;5064072;28;20691;-79
2022/06/18 06:05:12;;;;;;;5.95;3.30;;;24.70;94.80;;;;;;5059584;28;20111;-79
2022/06/18 06:07:38;;;;;;;4.40;2.70;;;24.80;96.60;;;;;;5057583;28;20098;-77
2022/06/18 06:13:02;;;;;;;3.42;3.03;;;24.90;98.90;;;;;;5058754;28;20045;-77
2022/06/18 06:15:28;;;;;;;5.50;3.00;;;24.90;93.70;;;;;;5065277;28;20045;-76
2022/06/18 06:17:54;;;;;;;4.57;2.95;;;24.90;93.60;;;;;;5046267;28;20045;-77
2022/06/18 06:20:27;;;;;;;7.60;3.03;;;24.90;93.30;;;;;;5063663;28;20399;-77
2022/06/18 06:22:53;;;;;;;3.78;2.00;;;24.90;93.20;;;;;;5061584;28;20503;-77
2022/06/18 06:25:19;;;;;;;4.90;2.50;;;24.90;93.00;;;;;;5061855;28;20036;-78
2022/06/18 06:27:45;;;;;;;5.45;2.33;;;24.90;92.80;;;;;;5062915;28;20048;-78
2022/06/18 06:30:12;;;;;;;4.45;2.03;;;25.00;92.70;;;;;;5063676;28;20468;-77
2022/06/18 06:32:38;;;;;;;6.35;3.33;;;25.00;92.50;;;;;;5061559;28;20132;-78
2022/06/18 06:35:04;;;;;;;3.63;2.22;;;25.00;92.30;;;;;;5064418;28;20041;-78
2022/06/18 06:37:30;;;;;;;4.63;2.75;;;25.10;92.30;;;;;;5064111;28;20059;-77
2022/06/18 06:39:56;;;;;;;3.78;1.95;;;25.10;92.20;;;;;;5068336;28;20056;-78
2022/06/18 06:42:22;;;;;;;2.70;1.92;;;25.10;92.20;;;;;;5070251;28;20060;-78
2022/06/18 06:44:48;;;;;;;3.00;2.13;;;25.10;92.20;;;;;;5070231;28;20044;-77
2022/06/18 06:47:13;;;;;;;6.05;3.40;;;25.10;92.20;;;;;;5082680;27;20047;-77
2022/06/18 06:49:39;;;;;;;8.88;2.65;;;25.10;92.10;;;;;;5064006;28;20135;-78
2022/06/18 06:52:05;;;;;;;5.07;3.00;;;25.20;92.00;;;;;;5061228;28;20568;-78
2022/06/18 06:54:30;;;;;;;4.65;3.20;;;25.20;92.00;;;;;;5063245;28;20028;-78
2022/06/18 06:59:40;;;;;;;4.85;2.60;;;25.20;91.80;;;;;;5062365;28;20049;-78
2022/06/18 07:02:16;;;;;;;3.35;2.13;;;25.20;91.80;;;;;;5064142;28;20064;-78
2022/06/18 07:04:42;;;;;;;3.00;2.28;;;25.30;91.70;;;;;;5065121;28;20103;-78
2022/06/18 07:07:11;;;;;;;3.70;2.35;;;25.30;91.70;;;;;;5071986;28;20091;-78
2022/06/18 07:09:37;;;;;;;3.45;2.63;;;25.30;91.60;;;;;;5060349;28;20045;-79
2022/06/18 07:12:04;;;;;;;4.18;2.25;;;25.30;91.50;;;;;;5054434;28;20049;-78
2022/06/18 07:14:29;;;;;;;4.63;2.10;;;25.40;91.50;;;;;;5060936;28;20180;-79
2022/06/18 07:16:55;;;;;;;6.07;3.65;;;25.40;91.40;;;;;;5044191;28;20044;-77
2022/06/18 07:19:21;;;;;;;3.45;2.20;;;25.50;91.40;;;;;;5063791;28;20167;-79
2022/06/18 07:21:51;;;;;;;4.00;2.20;;;25.40;91.20;;;;;;5060420;28;20110;-80
2022/06/18 07:24:17;;;;;;;3.30;2.05;;;25.50;91.10;;;;;;5061813;28;20573;-80
2022/06/18 07:26:42;;;;;;;6.88;2.88;;;25.50;91.10;;;;;;5061817;28;20041;-80
2022/06/18 07:29:09;;;;;;;4.13;2.85;;;25.40;91.00;;;;;;5063364;28;20049;-81
2022/06/18 07:31:35;;;;;;;5.25;3.22;;;25.50;91.10;;;;;;5059723;28;20040;-77
2022/06/18 07:34:03;;;;;;;3.58;2.38;;;25.50;91.00;;;;;;5060534;28;20041;-77
2022/06/18 07:36:30;;;;;;;3.53;2.25;;;25.60;91.00;;;;;;5061474;28;20519;-78
2022/06/18 07:38:56;;;;;;;5.25;2.35;;;25.60;90.90;;;;;;5060005;28;20136;-78
2022/06/18 07:41:26;;;;;;;3.92;2.00;;;25.60;90.90;;;;;;5062699;28;20045;-77
2022/06/18 07:43:56;;;;;;;3.83;2.13;;;25.70;90.90;;;;;;5062153;28;20615;-78
2022/06/18 07:46:21;;;;;;;3.22;1.90;;;25.70;90.80;;;;;;5058826;28;20048;-78
2022/06/18 07:48:47;;;;;;;6.00;2.50;;;25.70;90.80;;;;;;5061569;28;20048;-78
2022/06/18 07:51:14;;;;;;;4.53;3.13;;;25.70;90.80;;;;;;5057287;28;20526;-78
2022/06/18 07:53:40;;;;;;;3.25;2.38;;;25.70;90.80;;;;;;5056408;28;20866;-77
2022/06/18 07:56:07;;;;;;;3.78;2.20;;;25.80;90.90;;;;;;5074189;28;20127;-80
2022/06/18 07:58:33;;;;;;;3.70;2.20;;;25.80;90.90;;;;;;5061101;28;20059;-77
2022/06/18 08:00:59;;;;;;;4.47;2.47;;;25.80;91.00;;;;;;5061225;28;20151;-77
2022/06/18 08:03:26;;;;;;;4.57;2.38;;;25.80;91.00;;;;;;5060762;28;20036;-77
2022/06/18 08:05:53;;;;;;;6.25;2.72;;;25.90;91.00;;;;;;5045210;28;20669;-77
2022/06/18 08:08:18;;;;;;;4.13;2.20;;;25.90;91.00;;;;;;5061879;28;20495;-77
2022/06/18 08:10:49;;;;;;;2.53;2.00;;;25.90;91.00;;;;;;5063769;28;20434;-77
2022/06/18 08:13:15;;;;;;;4.85;2.38;;;26.10;91.10;;;;;;5065483;28;20135;-77
2022/06/18 08:15:41;;;;;;;5.47;2.97;;;26.00;91.10;;;;;;5064055;28;20600;-81
2022/06/18 08:18:07;;;;;;;7.60;3.13;;;26.00;91.40;;;;;;5064975;28;20052;-80
2022/06/18 08:20:35;;;;;;;4.55;2.65;;;26.00;91.20;;;;;;5063632;28;20534;-80
2022/06/18 08:23:02;;;;;;;4.18;2.35;;;26.10;91.50;;;;;;5062516;28;20621;-77
2022/06/18 08:25:30;;;;;;;2.78;2.38;;;26.10;91.30;;;;;;5063122;28;20044;-77
2022/06/18 08:27:59;;;;;;;4.53;2.80;;;26.10;91.30;;;;;;5063350;28;20037;-77
2022/06/18 08:30:26;;;;;;;3.60;2.30;;;26.10;91.40;;;;;;5062265;28;20135;-77
2022/06/18 08:32:52;;;;;;;3.75;2.42;;;26.20;91.40;;;;;;5064040;28;20120;-77
2022/06/18 08:35:18;;;;;;;2.63;2.25;;;26.20;91.40;;;;;;5064666;28;20040;-77
2022/06/18 08:37:44;;;;;;;6.57;3.30;;;26.20;91.40;;;;;;5064228;28;20497;-77
2022/06/18 08:40:37;;;;;;;5.07;2.40;;;26.30;91.40;;;;;;5063156;28;20036;-77
2022/06/18 08:43:50;;;;;;;4.10;1.90;;;26.30;91.50;;;;;;5045882;28;20063;-77
2022/06/18 08:46:24;;;;;;;4.32;2.75;;;26.30;91.50;;;;;;5053933;28;20045;-77
2022/06/18 08:49:16;;;;;;;5.68;2.95;;;26.30;91.50;;;;;;5063741;28;20041;-77
2022/06/18 08:52:08;;;;;;;;;;;26.30;91.50;;;;;;5063179;28;20037;-77
2022/06/18 08:54:34;;;;;;;;;;;26.40;91.50;;;;;;5048424;28;20011;-77
2022/06/18 08:57:11;;;;;;;4.78;2.40;;;26.40;91.60;;;;;;5064930;28;20338;-77
2022/06/18 08:59:48;;;;;;;4.03;2.35;;;26.40;91.50;;;;;;5064278;28;20041;-77
2022/06/18 09:02:30;;;;;;;3.28;2.17;;;26.50;91.50;;;;;;5079316;28;20075;-77
2022/06/18 09:05:29;;;;;;;3.83;2.17;;;26.50;91.50;;;;;;5064189;28;20559;-77
2022/06/18 09:08:28;;;;;;;3.42;2.72;;;26.60;91.60;;;;;;5056123;28;20049;-77
2022/06/18 09:10:57;;;;;;;3.28;2.42;;;26.60;91.60;;;;;;5063248;28;20109;-77
2022/06/18 09:13:36;;;;;;;4.18;2.67;;;26.70;91.60;;;;;;5063757;28;20175;-77
2022/06/18 09:16:07;;;;;;;3.72;2.28;;;26.80;91.50;;;;;;5060814;28;20531;-77
2022/06/18 09:18:45;;;;;;;4.45;2.22;;;26.80;91.40;;;;;;5063089;28;20550;-77
2022/06/18 09:21:39;;;;;;;4.90;2.38;;;26.80;91.20;;;;;;5077925;28;20726;-77
2022/06/18 09:24:07;;;;;;;4.60;2.05;;;26.90;91.10;;;;;;5052151;28;20057;-78
2022/06/18 09:26:41;;;;;;;4.40;2.35;;;26.90;91.00;;;;;;5062862;28;20041;-77
2022/06/18 09:29:23;;;;;;;5.15;2.47;;;27.00;90.90;;;;;;5062974;28;20048;-77
2022/06/18 09:31:56;;;;;;;3.10;2.35;;;27.00;90.80;;;;;;5063930;28;20045;-77
2022/06/18 09:34:26;;;;;;;3.65;2.22;;;27.00;90.70;;;;;;5064582;28;20040;-77
2022/06/18 09:37:01;;;;;;;3.50;2.60;;;27.20;90.70;;;;;;5060545;28;20768;-77
2022/06/18 09:39:50;;;;;;;3.10;2.33;;;27.20;90.50;;;;;;5061448;28;20059;-77
2022/06/18 09:42:25;;;;;;;3.78;2.25;;;27.20;90.50;;;;;;5059028;28;20056;-82
2022/06/18 09:45:01;;;;;;;3.55;2.03;;;27.30;90.40;;;;;;5061746;28;20040;-87
2022/06/18 09:47:42;;;;;;;3.35;2.40;;;27.30;90.40;;;;;;5066201;28;20129;-84
2022/06/18 09:50:45;;;;;;;5.83;2.80;;;27.40;90.40;;;;;;5054811;28;20594;-79
2022/06/18 09:53:15;;;;;;;5.70;2.42;;;27.50;90.40;;;;;;5058574;28;20264;-82
2022/06/18 09:56:07;;;;;;;4.85;2.80;;;27.50;90.30;;;;;;5060295;28;20048;-88
2022/06/18 09:58:52;;;;;;;5.70;2.30;;;27.60;90.00;;;;;;5057689;28;20037;-80
2022/06/18 10:01:27;;;;;;;4.18;2.47;;;27.60;90.00;;;;;;5060254;28;20053;-88
2022/06/18 10:06:55;;;;;;;3.80;2.35;;;27.60;89.80;;;;;;5063059;28;20124;-81
2022/06/18 10:09:36;;;;;;;4.85;2.17;;;27.60;89.60;;;;;;5062993;28;20537;-81
2022/06/18 10:12:25;;;;;;;3.17;2.00;;;27.60;89.50;;;;;;5060440;28;20037;-84
2022/06/18 10:14:56;;;;;;;7.25;2.92;;;27.70;89.20;;;;;;5075697;28;20636;-84
2022/06/18 10:17:46;;;;;;;5.63;2.67;;;27.70;89.20;;;;;;5062988;28;20048;-85
2022/06/18 10:20:21;;;;;;;5.45;2.28;;;27.70;88.90;;;;;;5072394;28;20542;-79
2022/06/18 10:23:03;;;;;;;6.57;3.50;;;27.80;88.70;;;;;;5061565;28;20588;-77
2022/06/18 10:25:43;;;;;;;410.98;187.90;;;27.90;88.50;;;;;;5061666;28;20052;-78
2022/06/18 10:28:20;;;;;;;184.98;75.20;;;27.90;88.70;;;;;;5063797;28;20048;-78
2022/06/18 10:30:52;;;;;;;139.90;60.03;;;28.00;88.60;;;;;;5059488;28;20858;-78
2022/06/18 10:33:41;;;;;;;99.85;42.88;;;28.00;88.40;;;;;;5061164;28;20099;-78
2022/06/18 10:36:30;;;;;;;79.15;34.97;;;28.00;88.30;;;;;;5056285;28;20153;-78
2022/06/18 10:39:03;;;;;;;83.32;35.10;;;28.10;88.30;;;;;;5059268;28;20523;-78
2022/06/18 10:41:32;;;;;;;46.08;16.90;;;28.10;88.30;;;;;;5061044;28;20049;-78
2022/06/18 10:44:09;;;;;;;61.00;25.05;;;28.10;88.40;;;;;;5075678;28;20639;-78
2022/06/18 10:46:35;;;;;;;40.88;17.60;;;28.20;88.40;;;;;;5061605;28;20811;-78
2022/06/18 10:49:05;;;;;;;15.32;7.55;;;28.30;88.20;;;;;;5060246;28;20729;-78
2022/06/18 10:51:47;;;;;;;27.35;12.52;;;28.30;87.60;;;;;;5057088;28;20300;-77
2022/06/18 10:54:14;;;;;;;31.05;14.00;;;28.40;87.10;;;;;;5057262;28;20198;-78
2022/06/18 10:56:51;;;;;;;19.85;9.40;;;28.40;87.00;;;;;;5056628;28;20080;-78
2022/06/18 10:59:36;;;;;;;20.00;7.90;;;28.50;86.60;;;;;;5059649;28;20045;-77
2022/06/18 11:02:14;;;;;;;20.75;9.55;;;28.50;86.50;;;;;;5059962;28;20037;-78
2022/06/18 11:04:41;;;;;;;12.32;6.70;;;28.50;86.40;;;;;;5061138;28;20040;-77
2022/06/18 11:07:09;;;;;;;14.02;5.95;;;28.50;86.40;;;;;;5064161;28;20110;-78
2022/06/18 11:09:51;;;;;;;15.18;7.70;;;28.50;86.50;;;;;;5061187;28;20052;-78
2022/06/18 11:12:25;;;;;;;12.57;5.60;;;28.50;86.60;;;;;;5072113;28;21970;-78
2022/06/18 11:14:51;;;;;;;27.15;12.65;;;28.60;86.70;;;;;;5062028;28;20048;-78
2022/06/18 11:17:43;;;;;;;12.25;5.85;;;28.70;86.60;;;;;;5058940;28;20719;-79
2022/06/18 11:20:15;;;;;;;15.82;7.43;;;28.70;86.30;;;;;;5059675;28;20178;-78
2022/06/18 11:22:41;;;;;;;15.50;8.32;;;28.70;86.30;;;;;;5060418;28;20044;-78
2022/06/18 11:25:27;;;;;;;12.57;5.82;;;28.70;86.80;;;;;;5060958;28;20037;-78
2022/06/18 11:27:57;;;;;;;14.88;5.72;;;28.70;85.70;;;;;;5060932;28;20128;-78
2022/06/18 11:30:34;;;;;;;11.77;6.30;;;28.80;85.70;;;;;;5072176;28;20133;-78
2022/06/18 11:33:02;;;;;;;12.93;7.32;;;28.80;85.40;;;;;;5059559;28;21149;-78
2022/06/18 11:35:32;;;;;;;9.48;4.47;;;28.80;85.40;;;;;;5058832;28;20138;-78
2022/06/18 11:38:02;;;;;;;15.48;6.13;;;28.80;85.10;;;;;;5060419;28;20998;-78
2022/06/18 11:40:29;;;;;;;17.10;7.00;;;28.90;84.80;;;;;;5059019;28;20458;-77
2022/06/18 11:43:34;;;;;;;10.20;3.75;;;28.90;84.50;;;;;;5062361;28;20558;-78
2022/06/18 11:46:11;;;;;;;28.17;8.55;;;29.00;83.90;;;;;;5075995;28;20071;-77
2022/06/18 11:49:12;;;;;;;12.38;4.03;;;29.00;83.80;;;;;;5061001;28;21727;-78
2022/06/18 11:52:15;;;;;;;12.93;5.17;;;29.00;83.60;;;;;;5056206;28;20079;-78
2022/06/18 11:54:50;;;;;;;12.57;4.93;;;29.10;83.20;;;;;;5049987;28;20319;-78
2022/06/18 11:57:27;;;;;;;10.13;5.10;;;29.10;83.10;;;;;;5060163;28;20076;-77
2022/06/18 12:00:11;;;;;;;10.57;5.63;;;29.20;83.00;;;;;;5065107;28;20063;-79
2022/06/18 12:02:45;;;;;;;10.75;6.45;;;29.20;82.90;;;;;;5067316;28;20075;-78
2022/06/18 12:05:44;;;;;;;8.40;3.90;;;29.20;82.60;;;;;;5061346;28;20040;-77
2022/06/18 12:08:16;;;;;;;11.18;3.65;;;29.30;82.60;;;;;;5062820;28;20318;-77
2022/06/18 12:10:51;;;;;;;10.32;4.35;;;29.30;82.80;;;;;;5059004;28;20043;-77
2022/06/18 12:13:32;;;;;;;11.27;4.90;;;29.30;82.60;;;;;;5058592;28;20259;-80
2022/06/18 12:16:22;;;;;;;15.57;6.40;;;29.40;82.50;;;;;;5061183;28;20059;-77
2022/06/18 12:18:59;;;;;;;10.25;5.95;;;29.40;82.60;;;;;;5057677;28;20053;-77
2022/06/18 12:21:34;;;;;;;13.45;6.70;;;29.40;82.50;;;;;;5064609;28;20049;-77
2022/06/18 12:24:14;;;;;;;8.70;4.75;;;29.50;82.40;;;;;;5060118;28;20119;-77
2022/06/18 12:26:51;;;;;;;10.47;4.97;;;29.60;82.10;;;;;;5063371;28;20044;-77
2022/06/18 12:29:27;;;;;;;13.93;3.72;;;29.60;82.00;;;;;;5058996;28;20052;-76
2022/06/18 12:32:03;;;;;;;13.27;4.35;;;29.70;81.80;;;;;;5063809;28;20132;-77
2022/06/18 12:34:57;;;;;;;9.38;3.78;;;29.70;81.60;;;;;;5063599;28;20044;-76
2022/06/18 12:37:45;;;;;;;19.60;6.18;;;29.70;81.10;;;;;;5061419;28;20072;-81
2022/06/18 12:40:14;;;;;;;9.27;5.50;;;29.80;81.40;;;;;;5061684;28;20045;-77
2022/06/18 12:42:51;;;;;;;12.63;4.95;;;29.80;81.50;;;;;;5077980;28;20056;-79
2022/06/18 12:45:47;;;;;;;14.82;5.68;;;29.90;81.40;;;;;;5059761;28;21481;-77
2022/06/18 12:48:27;;;;;;;9.90;4.57;;;29.90;81.20;;;;;;5055731;28;20064;-78
2022/06/18 12:51:08;;;;;;;11.73;4.75;;;30.00;81.10;;;;;;5060438;28;20496;-77
2022/06/18 12:54:14;;;;;;;15.32;4.93;;;30.00;81.10;;;;;;5058538;28;20056;-78
2022/06/18 12:56:52;;;;;;;10.52;4.00;;;30.00;80.80;;;;;;5059091;28;20474;-80
2022/06/18 12:59:36;;;;;;;10.30;5.03;;;30.10;80.90;;;;;;5057734;28;20538;-80
2022/06/18 13:02:27;;;;;;;11.52;5.25;;;30.10;80.70;;;;;;5061798;28;20540;-79
2022/06/18 13:05:07;;;;;;;13.32;3.95;;;30.20;80.70;;;;;;5062822;28;20041;-79
2022/06/18 13:07:49;;;;;;;12.73;4.90;;;30.20;80.80;;;;;;5061257;28;20115;-80
2022/06/18 13:10:36;;;;;;;17.73;5.57;;;30.20;80.60;;;;;;5077332;28;20250;-79
2022/06/18 13:13:10;;;;;;;8.23;3.90;;;30.30;80.40;;;;;;5076491;28;20045;-79
2022/06/18 13:15:46;;;;;;;10.10;5.22;;;30.40;79.90;;;;;;5061385;28;20049;-78
2022/06/18 13:18:32;;;;;;;13.82;4.00;;;30.40;79.90;;;;;;5061999;28;20071;-79
2022/06/18 13:21:00;;;;;;;7.35;3.20;;;30.40;79.40;;;;;;5044352;28;20044;-78
2022/06/18 13:29:03;;;;;;;12.90;5.45;;;30.50;78.90;;;;;;5061576;28;20111;-82
2022/06/18 13:31:44;;;;;;;15.77;5.82;;;30.60;79.00;;;;;;5062727;28;20051;-82